sensor_id;sensor_type;location;lat;lon;timestamp;temperature;humidity
13817;DHT22;6979;52.116;5.286;2023-05-28T00:02:16;19.10;96.10
13817;DHT22;6979;52.116;5.286;2023-05-28T00:04:42;19.00;96.20
13817;DHT22;6979;52.116;5.286;2023-05-28T00:07:11;19.00;96.30
13817;DHT22;6979;52.116;5.286;2023-05-28T00:09:38;18.90;96.40
13817;DHT22;6979;52.116;5.286;2023-05-28T00:12:06;18.90;96.60
13817;DHT22;6979;52.116;5.286;2023-05-28T00:14:33;18.80;96.60
13817;DHT22;6979;52.116;5.286;2023-05-28T00:17:00;18.80;96.80
13817;DHT22;6979;52.116;5.286;2023-05-28T00:19:27;18.80;96.80
13817;DHT22;6979;52.116;5.286;2023-05-28T00:21:54;18.70;96.90
13817;DHT22;6979;52.116;5.286;2023-05-28T00:24:22;18.70;97.00
13817;DHT22;6979;52.116;5.286;2023-05-28T00:26:49;18.60;97.10
13817;DHT22;6979;52.116;5.286;2023-05-28T00:29:16;18.60;97.20
13817;DHT22;6979;52.116;5.286;2023-05-28T00:31:43;18.60;97.30
13817;DHT22;6979;52.116;5.286;2023-05-28T00:34:10;18.50;97.30
13817;DHT22;6979;52.116;5.286;2023-05-28T00:36:37;18.50;97.40
13817;DHT22;6979;52.116;5.286;2023-05-28T00:39:03;18.50;97.60
13817;DHT22;6979;52.116;5.286;2023-05-28T00:41:33;18.40;97.70
13817;DHT22;6979;52.116;5.286;2023-05-28T00:44:01;18.40;97.80
13817;DHT22;6979;52.116;5.286;2023-05-28T00:46:29;18.30;97.80
13817;DHT22;6979;52.116;5.286;2023-05-28T00:48:56;18.30;97.80
13817;DHT22;6979;52.116;5.286;2023-05-28T00:51:26;18.30;97.90
13817;DHT22;6979;52.116;5.286;2023-05-28T00:53:53;18.20;98.00
13817;DHT22;6979;52.116;5.286;2023-05-28T00:56:21;18.20;98.10
13817;DHT22;6979;52.116;5.286;2023-05-28T00:58:51;18.20;98.20
13817;DHT22;6979;52.116;5.286;2023-05-28T01:01:21;18.10;98.20
13817;DHT22;6979;52.116;5.286;2023-05-28T01:03:50;18.10;98.20
13817;DHT22;6979;52.116;5.286;2023-05-28T01:06:21;18.10;98.40
13817;DHT22;6979;52.116;5.286;2023-05-28T01:08:48;18.00;98.60
13817;DHT22;6979;52.116;5.286;2023-05-28T01:11:17;18.00;98.40
13817;DHT22;6979;52.116;5.286;2023-05-28T01:13:45;18.00;98.60
13817;DHT22;6979;52.116;5.286;2023-05-28T01:16:15;17.90;98.70
13817;DHT22;6979;52.116;5.286;2023-05-28T01:18:44;17.90;98.80
13817;DHT22;6979;52.116;5.286;2023-05-28T01:21:12;17.90;98.90
13817;DHT22;6979;52.116;5.286;2023-05-28T01:23:49;17.90;98.80
13817;DHT22;6979;52.116;5.286;2023-05-28T01:26:17;17.90;99.00
13817;DHT22;6979;52.116;5.286;2023-05-28T01:28:48;17.80;98.80
13817;DHT22;6979;52.116;5.286;2023-05-28T01:31:17;17.80;99.20
13817;DHT22;6979;52.116;5.286;2023-05-28T01:33:44;17.80;99.20
13817;DHT22;6979;52.116;5.286;2023-05-28T01:36:20;17.80;99.20
13817;DHT22;6979;52.116;5.286;2023-05-28T01:38:52;17.80;99.60
13817;DHT22;6979;52.116;5.286;2023-05-28T01:41:25;17.80;99.70
13817;DHT22;6979;52.116;5.286;2023-05-28T01:43:53;17.70;99.60
13817;DHT22;6979;52.116;5.286;2023-05-28T01:46:22;17.70;99.80
13817;DHT22;6979;52.116;5.286;2023-05-28T01:48:49;17.70;99.90
13817;DHT22;6979;52.116;5.286;2023-05-28T01:51:17;17.60;99.90
13817;DHT22;6979;52.116;5.286;2023-05-28T01:53:45;17.60;99.90
13817;DHT22;6979;52.116;5.286;2023-05-28T01:56:13;17.60;99.90
13817;DHT22;6979;52.116;5.286;2023-05-28T01:58:40;17.50;99.90
13817;DHT22;6979;52.116;5.286;2023-05-28T02:01:13;17.50;99.90
13817;DHT22;6979;52.116;5.286;2023-05-28T02:03:42;17.50;99.90
13817;DHT22;6979;52.116;5.286;2023-05-28T02:06:08;17.40;99.90
13817;DHT22;6979;52.116;5.286;2023-05-28T02:08:36;17.40;99.90
13817;DHT22;6979;52.116;5.286;2023-05-28T02:11:03;17.40;99.90
13817;DHT22;6979;52.116;5.286;2023-05-28T02:13:31;17.40;99.90
13817;DHT22;6979;52.116;5.286;2023-05-28T02:15:58;17.30;99.90
13817;DHT22;6979;52.116;5.286;2023-05-28T02:18:25;17.30;99.90
13817;DHT22;6979;52.116;5.286;2023-05-28T02:20:52;17.30;99.90
13817;DHT22;6979;52.116;5.286;2023-05-28T02:23:19;17.30;99.90
13817;DHT22;6979;52.116;5.286;2023-05-28T02:25:46;17.30;99.90
13817;DHT22;6979;52.116;5.286;2023-05-28T02:28:13;17.30;99.90
13817;DHT22;6979;52.116;5.286;2023-05-28T02:30:41;17.30;99.90
13817;DHT22;6979;52.116;5.286;2023-05-28T02:33:08;17.30;99.90
13817;DHT22;6979;52.116;5.286;2023-05-28T02:35:37;17.30;99.90
13817;DHT22;6979;52.116;5.286;2023-05-28T02:38:04;17.20;99.90
13817;DHT22;6979;52.116;5.286;2023-05-28T02:40:32;17.20;99.90
13817;DHT22;6979;52.116;5.286;2023-05-28T02:43:00;17.20;99.90
13817;DHT22;6979;52.116;5.286;2023-05-28T02:45:27;17.20;99.90
13817;DHT22;6979;52.116;5.286;2023-05-28T02:47:56;17.20;99.90
13817;DHT22;6979;52.116;5.286;2023-05-28T02:50:22;17.20;99.90
13817;DHT22;6979;52.116;5.286;2023-05-28T02:53:02;17.20;99.90
13817;DHT22;6979;52.116;5.286;2023-05-28T02:55:29;17.20;99.90
13817;DHT22;6979;52.116;5.286;2023-05-28T02:57:56;17.20;99.90
13817;DHT22;6979;52.116;5.286;2023-05-28T03:00:24;17.20;99.90
13817;DHT22;6979;52.116;5.286;2023-05-28T03:02:52;17.20;99.90
13817;DHT22;6979;52.116;5.286;2023-05-28T03:05:20;17.20;99.90
13817;DHT22;6979;52.116;5.286;2023-05-28T03:07:47;17.20;99.90
13817;DHT22;6979;52.116;5.286;2023-05-28T03:10:13;17.10;99.90
13817;DHT22;6979;52.116;5.286;2023-05-28T03:12:40;17.10;99.90
13817;DHT22;6979;52.116;5.286;2023-05-28T03:15:08;17.10;99.90
13817;DHT22;6979;52.116;5.286;2023-05-28T03:17:35;17.10;99.90
13817;DHT22;6979;52.116;5.286;2023-05-28T03:20:03;17.10;99.90
13817;DHT22;6979;52.116;5.286;2023-05-28T03:22:31;17.10;99.90
13817;DHT22;6979;52.116;5.286;2023-05-28T03:24:58;17.10;99.90
13817;DHT22;6979;52.116;5.286;2023-05-28T03:27:25;17.10;99.90
13817;DHT22;6979;52.116;5.286;2023-05-28T03:29:52;17.10;99.90
13817;DHT22;6979;52.116;5.286;2023-05-28T03:32:23;17.10;99.90
13817;DHT22;6979;52.116;5.286;2023-05-28T03:34:50;17.10;99.90
13817;DHT22;6979;52.116;5.286;2023-05-28T03:37:23;17.00;99.90
13817;DHT22;6979;52.116;5.286;2023-05-28T03:39:53;17.00;99.90
13817;DHT22;6979;52.116;5.286;2023-05-28T03:42:21;17.00;99.90
13817;DHT22;6979;52.116;5.286;2023-05-28T03:44:48;17.00;99.90
13817;DHT22;6979;52.116;5.286;2023-05-28T03:47:15;17.00;99.90
13817;DHT22;6979;52.116;5.286;2023-05-28T03:49:42;16.90;99.90
13817;DHT22;6979;52.116;5.286;2023-05-28T03:52:09;16.90;99.90
13817;DHT22;6979;52.116;5.286;2023-05-28T03:54:45;16.90;99.90
13817;DHT22;6979;52.116;5.286;2023-05-28T03:57:14;16.90;99.90
13817;DHT22;6979;52.116;5.286;2023-05-28T03:59:41;16.80;99.90
13817;DHT22;6979;52.116;5.286;2023-05-28T04:02:08;16.80;99.90
13817;DHT22;6979;52.116;5.286;2023-05-28T04:04:35;16.80;99.90
13817;DHT22;6979;52.116;5.286;2023-05-28T04:07:02;16.80;99.90
13817;DHT22;6979;52.116;5.286;2023-05-28T04:09:30;16.70;99.90
13817;DHT22;6979;52.116;5.286;2023-05-28T04:11:56;16.70;99.90
13817;DHT22;6979;52.116;5.286;2023-05-28T04:14:24;16.70;99.90
13817;DHT22;6979;52.116;5.286;2023-05-28T04:16:52;16.80;99.90
13817;DHT22;6979;52.116;5.286;2023-05-28T04:19:20;16.80;99.90
13817;DHT22;6979;52.116;5.286;2023-05-28T04:21:47;16.80;99.90
13817;DHT22;6979;52.116;5.286;2023-05-28T04:24:13;16.80;99.90
13817;DHT22;6979;52.116;5.286;2023-05-28T04:26:40;16.80;99.90
13817;DHT22;6979;52.116;5.286;2023-05-28T04:29:07;16.80;99.90
13817;DHT22;6979;52.116;5.286;2023-05-28T04:31:35;16.90;99.90
13817;DHT22;6979;52.116;5.286;2023-05-28T04:34:02;16.80;99.90
13817;DHT22;6979;52.116;5.286;2023-05-28T04:36:29;16.90;99.90
13817;DHT22;6979;52.116;5.286;2023-05-28T04:38:59;16.90;99.90
13817;DHT22;6979;52.116;5.286;2023-05-28T04:41:28;16.90;99.90
13817;DHT22;6979;52.116;5.286;2023-05-28T04:43:57;16.90;99.90
13817;DHT22;6979;52.116;5.286;2023-05-28T04:46:24;17.00;99.90
13817;DHT22;6979;52.116;5.286;2023-05-28T04:48:56;17.00;99.90
13817;DHT22;6979;52.116;5.286;2023-05-28T04:51:24;17.00;99.90
13817;DHT22;6979;52.116;5.286;2023-05-28T04:53:50;17.00;99.90
13817;DHT22;6979;52.116;5.286;2023-05-28T04:56:17;17.00;99.90
13817;DHT22;6979;52.116;5.286;2023-05-28T04:58:46;17.00;99.90
13817;DHT22;6979;52.116;5.286;2023-05-28T05:01:13;17.00;99.90
13817;DHT22;6979;52.116;5.286;2023-05-28T05:03:41;17.10;99.90
13817;DHT22;6979;52.116;5.286;2023-05-28T05:06:09;17.10;99.90
13817;DHT22;6979;52.116;5.286;2023-05-28T05:08:36;17.10;99.90
13817;DHT22;6979;52.116;5.286;2023-05-28T05:11:03;17.00;99.90
13817;DHT22;6979;52.116;5.286;2023-05-28T05:13:32;17.10;99.90
13817;DHT22;6979;52.116;5.286;2023-05-28T05:15:59;17.10;99.90
13817;DHT22;6979;52.116;5.286;2023-05-28T05:18:26;17.10;99.90
13817;DHT22;6979;52.116;5.286;2023-05-28T05:20:52;17.10;99.90
13817;DHT22;6979;52.116;5.286;2023-05-28T05:23:22;17.10;99.90
13817;DHT22;6979;52.116;5.286;2023-05-28T05:25:50;17.10;99.90
13817;DHT22;6979;52.116;5.286;2023-05-28T05:28:17;17.10;99.90
13817;DHT22;6979;52.116;5.286;2023-05-28T05:30:44;17.10;99.90
13817;DHT22;6979;52.116;5.286;2023-05-28T05:33:11;17.10;99.90
13817;DHT22;6979;52.116;5.286;2023-05-28T05:36:10;17.10;99.90
13817;DHT22;6979;52.116;5.286;2023-05-28T05:38:59;17.20;99.90
13817;DHT22;6979;52.116;5.286;2023-05-28T05:41:52;17.20;99.90
13817;DHT22;6979;52.116;5.286;2023-05-28T05:44:23;17.20;99.90
13817;DHT22;6979;52.116;5.286;2023-05-28T05:46:49;17.30;99.90
13817;DHT22;6979;52.116;5.286;2023-05-28T05:49:16;17.30;99.90
13817;DHT22;6979;52.116;5.286;2023-05-28T05:51:43;17.30;99.90
13817;DHT22;6979;52.116;5.286;2023-05-28T05:54:12;17.40;99.90
13817;DHT22;6979;52.116;5.286;2023-05-28T05:56:40;17.40;99.90
13817;DHT22;6979;52.116;5.286;2023-05-28T05:59:07;17.50;99.90
13817;DHT22;6979;52.116;5.286;2023-05-28T06:01:41;17.50;99.90
13817;DHT22;6979;52.116;5.286;2023-05-28T06:04:07;17.50;99.90
13817;DHT22;6979;52.116;5.286;2023-05-28T06:06:37;17.60;99.90
13817;DHT22;6979;52.116;5.286;2023-05-28T06:09:30;17.60;99.90
13817;DHT22;6979;52.116;5.286;2023-05-28T06:12:03;17.60;99.90
13817;DHT22;6979;52.116;5.286;2023-05-28T06:14:31;17.70;99.90
13817;DHT22;6979;52.116;5.286;2023-05-28T06:16:59;17.70;99.90
13817;DHT22;6979;52.116;5.286;2023-05-28T06:19:25;17.80;99.90
13817;DHT22;6979;52.116;5.286;2023-05-28T06:21:55;17.90;99.90
13817;DHT22;6979;52.116;5.286;2023-05-28T06:24:22;17.90;99.90
13817;DHT22;6979;52.116;5.286;2023-05-28T06:26:51;18.00;99.90
13817;DHT22;6979;52.116;5.286;2023-05-28T06:29:18;18.00;99.90
13817;DHT22;6979;52.116;5.286;2023-05-28T06:31:45;18.10;99.90
13817;DHT22;6979;52.116;5.286;2023-05-28T06:34:13;18.10;99.90
13817;DHT22;6979;52.116;5.286;2023-05-28T06:36:40;18.20;99.90
13817;DHT22;6979;52.116;5.286;2023-05-28T06:39:07;18.30;99.90
13817;DHT22;6979;52.116;5.286;2023-05-28T06:41:34;18.40;99.90
13817;DHT22;6979;52.116;5.286;2023-05-28T06:44:04;18.50;99.90
13817;DHT22;6979;52.116;5.286;2023-05-28T06:46:42;18.60;99.90
13817;DHT22;6979;52.116;5.286;2023-05-28T06:49:12;18.60;99.90
13817;DHT22;6979;52.116;5.286;2023-05-28T06:51:39;18.70;99.90
13817;DHT22;6979;52.116;5.286;2023-05-28T06:54:06;18.80;99.90
13817;DHT22;6979;52.116;5.286;2023-05-28T06:56:34;18.90;99.90
13817;DHT22;6979;52.116;5.286;2023-05-28T06:59:35;18.90;99.90
13817;DHT22;6979;52.116;5.286;2023-05-28T07:02:25;19.00;99.90
13817;DHT22;6979;52.116;5.286;2023-05-28T07:05:03;19.10;99.90
13817;DHT22;6979;52.116;5.286;2023-05-28T07:07:32;19.20;99.90
13817;DHT22;6979;52.116;5.286;2023-05-28T07:09:59;19.20;99.90
13817;DHT22;6979;52.116;5.286;2023-05-28T07:12:27;19.30;99.90
13817;DHT22;6979;52.116;5.286;2023-05-28T07:14:59;19.40;99.90
13817;DHT22;6979;52.116;5.286;2023-05-28T07:17:27;19.40;99.90
13817;DHT22;6979;52.116;5.286;2023-05-28T07:19:54;19.50;99.90
13817;DHT22;6979;52.116;5.286;2023-05-28T07:22:38;19.60;99.90
13817;DHT22;6979;52.116;5.286;2023-05-28T07:25:06;19.70;99.90
13817;DHT22;6979;52.116;5.286;2023-05-28T07:27:33;19.70;99.90
13817;DHT22;6979;52.116;5.286;2023-05-28T07:30:02;19.80;99.90
13817;DHT22;6979;52.116;5.286;2023-05-28T07:32:29;19.90;99.90
13817;DHT22;6979;52.116;5.286;2023-05-28T07:34:57;20.00;99.90
13817;DHT22;6979;52.116;5.286;2023-05-28T07:37:24;20.00;99.90
13817;DHT22;6979;52.116;5.286;2023-05-28T07:39:54;20.10;99.90
13817;DHT22;6979;52.116;5.286;2023-05-28T07:42:21;20.20;99.90
13817;DHT22;6979;52.116;5.286;2023-05-28T07:44:57;20.30;99.90
13817;DHT22;6979;52.116;5.286;2023-05-28T07:47:25;20.40;99.90
13817;DHT22;6979;52.116;5.286;2023-05-28T07:50:08;20.50;99.90
13817;DHT22;6979;52.116;5.286;2023-05-28T07:52:51;20.60;99.90
13817;DHT22;6979;52.116;5.286;2023-05-28T07:55:18;20.70;99.90
13817;DHT22;6979;52.116;5.286;2023-05-28T07:57:46;20.80;99.90
13817;DHT22;6979;52.116;5.286;2023-05-28T08:00:13;20.90;99.90
13817;DHT22;6979;52.116;5.286;2023-05-28T08:03:00;21.00;99.90
13817;DHT22;6979;52.116;5.286;2023-05-28T08:05:36;21.10;99.90
13817;DHT22;6979;52.116;5.286;2023-05-28T08:08:04;21.30;99.90
13817;DHT22;6979;52.116;5.286;2023-05-28T08:10:32;21.40;99.90
13817;DHT22;6979;52.116;5.286;2023-05-28T08:12:59;21.40;99.90
13817;DHT22;6979;52.116;5.286;2023-05-28T08:15:27;21.60;99.90
13817;DHT22;6979;52.116;5.286;2023-05-28T08:17:56;21.60;99.90
13817;DHT22;6979;52.116;5.286;2023-05-28T08:20:25;21.80;99.90
13817;DHT22;6979;52.116;5.286;2023-05-28T08:22:56;21.80;99.90
13817;DHT22;6979;52.116;5.286;2023-05-28T08:25:23;21.90;99.90
13817;DHT22;6979;52.116;5.286;2023-05-28T08:27:57;22.00;99.90
13817;DHT22;6979;52.116;5.286;2023-05-28T08:30:25;22.20;99.90
13817;DHT22;6979;52.116;5.286;2023-05-28T08:32:59;22.30;99.90
13817;DHT22;6979;52.116;5.286;2023-05-28T08:35:27;22.40;99.90
13817;DHT22;6979;52.116;5.286;2023-05-28T08:37:56;22.50;99.90
13817;DHT22;6979;52.116;5.286;2023-05-28T08:40:49;22.60;99.90
13817;DHT22;6979;52.116;5.286;2023-05-28T08:43:16;22.80;99.90
13817;DHT22;6979;52.116;5.286;2023-05-28T08:45:45;22.80;99.90
13817;DHT22;6979;52.116;5.286;2023-05-28T08:48:12;23.00;99.90
13817;DHT22;6979;52.116;5.286;2023-05-28T08:50:46;23.10;99.90
13817;DHT22;6979;52.116;5.286;2023-05-28T08:53:21;23.20;99.90
13817;DHT22;6979;52.116;5.286;2023-05-28T08:55:49;23.50;99.90
13817;DHT22;6979;52.116;5.286;2023-05-28T08:58:20;23.80;99.90
13817;DHT22;6979;52.116;5.286;2023-05-28T09:00:50;24.20;99.90
13817;DHT22;6979;52.116;5.286;2023-05-28T09:03:28;24.60;99.90
13817;DHT22;6979;52.116;5.286;2023-05-28T09:06:04;25.00;99.60
13817;DHT22;6979;52.116;5.286;2023-05-28T09:08:32;25.50;98.40
13817;DHT22;6979;52.116;5.286;2023-05-28T09:11:09;25.80;97.80
13817;DHT22;6979;52.116;5.286;2023-05-28T09:13:40;26.20;96.60
13817;DHT22;6979;52.116;5.286;2023-05-28T09:16:09;26.50;96.20
13817;DHT22;6979;52.116;5.286;2023-05-28T09:18:36;26.70;95.60
13817;DHT22;6979;52.116;5.286;2023-05-28T09:21:08;26.90;94.90
13817;DHT22;6979;52.116;5.286;2023-05-28T09:23:36;27.20;94.50
13817;DHT22;6979;52.116;5.286;2023-05-28T09:26:23;27.30;94.50
13817;DHT22;6979;52.116;5.286;2023-05-28T09:29:01;27.40;93.70
13817;DHT22;6979;52.116;5.286;2023-05-28T09:31:34;27.60;93.20
13817;DHT22;6979;52.116;5.286;2023-05-28T09:34:04;27.70;92.80
13817;DHT22;6979;52.116;5.286;2023-05-28T09:36:35;27.90;92.60
13817;DHT22;6979;52.116;5.286;2023-05-28T09:39:06;28.10;92.00
13817;DHT22;6979;52.116;5.286;2023-05-28T09:41:33;28.30;92.00
13817;DHT22;6979;52.116;5.286;2023-05-28T09:44:03;28.50;91.80
13817;DHT22;6979;52.116;5.286;2023-05-28T09:46:32;28.90;91.20
13817;DHT22;6979;52.116;5.286;2023-05-28T09:48:59;29.20;90.50
13817;DHT22;6979;52.116;5.286;2023-05-28T09:51:28;29.50;90.00
13817;DHT22;6979;52.116;5.286;2023-05-28T09:53:58;29.70;88.80
13817;DHT22;6979;52.116;5.286;2023-05-28T09:56:28;30.00;88.00
13817;DHT22;6979;52.116;5.286;2023-05-28T09:59:00;30.30;88.20
13817;DHT22;6979;52.116;5.286;2023-05-28T10:01:31;30.50;86.70
13817;DHT22;6979;52.116;5.286;2023-05-28T10:04:02;30.90;85.70
13817;DHT22;6979;52.116;5.286;2023-05-28T10:06:35;31.20;84.60
13817;DHT22;6979;52.116;5.286;2023-05-28T10:09:04;31.50;83.90
13817;DHT22;6979;52.116;5.286;2023-05-28T10:11:36;31.80;81.40
13817;DHT22;6979;52.116;5.286;2023-05-28T10:14:06;32.00;81.10
13817;DHT22;6979;52.116;5.286;2023-05-28T10:16:34;32.20;80.60
13817;DHT22;6979;52.116;5.286;2023-05-28T10:19:02;32.50;80.00
13817;DHT22;6979;52.116;5.286;2023-05-28T10:21:31;32.80;79.50
13817;DHT22;6979;52.116;5.286;2023-05-28T10:23:58;33.10;78.60
13817;DHT22;6979;52.116;5.286;2023-05-28T10:26:26;33.30;78.20
13817;DHT22;6979;52.116;5.286;2023-05-28T10:28:54;33.60;77.20
13817;DHT22;6979;52.116;5.286;2023-05-28T10:31:21;33.80;76.20
13817;DHT22;6979;52.116;5.286;2023-05-28T10:33:51;34.00;75.80
13817;DHT22;6979;52.116;5.286;2023-05-28T10:36:18;34.10;75.20
13817;DHT22;6979;52.116;5.286;2023-05-28T10:38:57;34.30;75.30
13817;DHT22;6979;52.116;5.286;2023-05-28T10:41:27;34.50;74.70
13817;DHT22;6979;52.116;5.286;2023-05-28T10:44:05;34.70;73.90
13817;DHT22;6979;52.116;5.286;2023-05-28T10:46:35;34.90;72.40
13817;DHT22;6979;52.116;5.286;2023-05-28T10:49:08;35.10;71.40
13817;DHT22;6979;52.116;5.286;2023-05-28T10:51:55;35.30;70.50
13817;DHT22;6979;52.116;5.286;2023-05-28T10:54:26;35.40;70.60
13817;DHT22;6979;52.116;5.286;2023-05-28T10:57:11;35.50;69.70
13817;DHT22;6979;52.116;5.286;2023-05-28T10:59:47;35.60;69.60
13817;DHT22;6979;52.116;5.286;2023-05-28T11:02:21;35.60;69.70
13817;DHT22;6979;52.116;5.286;2023-05-28T11:04:52;35.70;69.00
13817;DHT22;6979;52.116;5.286;2023-05-28T11:07:21;35.80;68.90
13817;DHT22;6979;52.116;5.286;2023-05-28T11:09:49;35.80;69.60
13817;DHT22;6979;52.116;5.286;2023-05-28T11:12:19;35.90;68.90
13817;DHT22;6979;52.116;5.286;2023-05-28T11:14:48;36.00;67.90
13817;DHT22;6979;52.116;5.286;2023-05-28T11:17:15;36.00;67.60
13817;DHT22;6979;52.116;5.286;2023-05-28T11:19:43;36.00;67.30
13817;DHT22;6979;52.116;5.286;2023-05-28T11:22:10;36.00;67.10
13817;DHT22;6979;52.116;5.286;2023-05-28T11:24:51;35.90;67.80
13817;DHT22;6979;52.116;5.286;2023-05-28T11:27:20;35.90;66.60
13817;DHT22;6979;52.116;5.286;2023-05-28T11:29:48;35.80;66.10
13817;DHT22;6979;52.116;5.286;2023-05-28T11:32:17;35.70;65.90
13817;DHT22;6979;52.116;5.286;2023-05-28T11:34:44;35.50;66.60
13817;DHT22;6979;52.116;5.286;2023-05-28T11:37:13;35.30;66.70
13817;DHT22;6979;52.116;5.286;2023-05-28T11:39:47;35.10;67.10
13817;DHT22;6979;52.116;5.286;2023-05-28T11:42:14;35.00;67.60
13817;DHT22;6979;52.116;5.286;2023-05-28T11:44:44;34.90;68.10
13817;DHT22;6979;52.116;5.286;2023-05-28T11:47:12;34.90;68.00
13817;DHT22;6979;52.116;5.286;2023-05-28T11:49:41;34.80;68.40
13817;DHT22;6979;52.116;5.286;2023-05-28T11:52:11;34.80;68.40
13817;DHT22;6979;52.116;5.286;2023-05-28T11:54:43;34.80;68.00
13817;DHT22;6979;52.116;5.286;2023-05-28T11:57:10;34.80;68.50
13817;DHT22;6979;52.116;5.286;2023-05-28T11:59:37;34.80;69.10
13817;DHT22;6979;52.116;5.286;2023-05-28T12:02:16;34.80;69.60
13817;DHT22;6979;52.116;5.286;2023-05-28T12:04:53;34.90;69.10
13817;DHT22;6979;52.116;5.286;2023-05-28T12:07:20;34.90;69.00
13817;DHT22;6979;52.116;5.286;2023-05-28T12:09:48;34.90;68.90
13817;DHT22;6979;52.116;5.286;2023-05-28T12:12:14;35.00;68.60
13817;DHT22;6979;52.116;5.286;2023-05-28T12:14:45;35.10;68.40
13817;DHT22;6979;52.116;5.286;2023-05-28T12:17:15;35.20;67.50
13817;DHT22;6979;52.116;5.286;2023-05-28T12:19:43;35.20;67.40
13817;DHT22;6979;52.116;5.286;2023-05-28T12:22:16;35.30;67.50
13817;DHT22;6979;52.116;5.286;2023-05-28T12:24:48;35.30;68.10
13817;DHT22;6979;52.116;5.286;2023-05-28T12:27:16;35.30;66.90
13817;DHT22;6979;52.116;5.286;2023-05-28T12:29:43;35.20;66.60
13817;DHT22;6979;52.116;5.286;2023-05-28T12:32:10;35.10;66.50
13817;DHT22;6979;52.116;5.286;2023-05-28T12:34:39;35.00;66.50
13817;DHT22;6979;52.116;5.286;2023-05-28T12:37:05;34.80;66.50
13817;DHT22;6979;52.116;5.286;2023-05-28T12:39:32;34.60;66.70
13817;DHT22;6979;52.116;5.286;2023-05-28T12:42:01;34.40;67.00
13817;DHT22;6979;52.116;5.286;2023-05-28T12:44:29;34.20;67.50
13817;DHT22;6979;52.116;5.286;2023-05-28T12:46:55;34.00;67.40
13817;DHT22;6979;52.116;5.286;2023-05-28T12:49:22;33.70;67.80
13817;DHT22;6979;52.116;5.286;2023-05-28T12:51:50;33.60;68.00
13817;DHT22;6979;52.116;5.286;2023-05-28T12:54:17;33.40;68.20
13817;DHT22;6979;52.116;5.286;2023-05-28T12:56:44;33.30;68.40
13817;DHT22;6979;52.116;5.286;2023-05-28T12:59:20;33.20;68.30
13817;DHT22;6979;52.116;5.286;2023-05-28T13:01:48;33.00;68.20
13817;DHT22;6979;52.116;5.286;2023-05-28T13:04:15;33.00;68.10
13817;DHT22;6979;52.116;5.286;2023-05-28T13:06:42;32.80;67.80
13817;DHT22;6979;52.116;5.286;2023-05-28T13:09:11;32.70;67.70
13817;DHT22;6979;52.116;5.286;2023-05-28T13:11:38;32.60;67.70
13817;DHT22;6979;52.116;5.286;2023-05-28T13:14:05;32.50;67.80
13817;DHT22;6979;52.116;5.286;2023-05-28T13:16:32;32.30;67.90
13817;DHT22;6979;52.116;5.286;2023-05-28T13:19:00;32.20;68.20
13817;DHT22;6979;52.116;5.286;2023-05-28T13:21:28;32.10;68.20
13817;DHT22;6979;52.116;5.286;2023-05-28T13:23:57;32.00;68.00
13817;DHT22;6979;52.116;5.286;2023-05-28T13:26:25;31.90;67.90
13817;DHT22;6979;52.116;5.286;2023-05-28T13:28:52;31.90;68.00
13817;DHT22;6979;52.116;5.286;2023-05-28T13:31:19;31.70;67.90
13817;DHT22;6979;52.116;5.286;2023-05-28T13:33:46;31.60;67.70
13817;DHT22;6979;52.116;5.286;2023-05-28T13:36:13;31.50;67.60
13817;DHT22;6979;52.116;5.286;2023-05-28T13:38:41;31.40;67.70
13817;DHT22;6979;52.116;5.286;2023-05-28T13:41:08;31.40;67.60
13817;DHT22;6979;52.116;5.286;2023-05-28T13:43:37;31.20;67.50
13817;DHT22;6979;52.116;5.286;2023-05-28T13:46:04;31.20;67.40
13817;DHT22;6979;52.116;5.286;2023-05-28T13:48:31;31.10;67.30
13817;DHT22;6979;52.116;5.286;2023-05-28T13:50:59;31.00;67.20
13817;DHT22;6979;52.116;5.286;2023-05-28T13:53:26;31.00;67.10
13817;DHT22;6979;52.116;5.286;2023-05-28T13:55:54;30.90;66.70
13817;DHT22;6979;52.116;5.286;2023-05-28T13:58:21;30.80;66.50
13817;DHT22;6979;52.116;5.286;2023-05-28T14:00:50;30.70;66.30
13817;DHT22;6979;52.116;5.286;2023-05-28T14:03:16;30.70;66.40
13817;DHT22;6979;52.116;5.286;2023-05-28T14:05:46;30.70;66.60
13817;DHT22;6979;52.116;5.286;2023-05-28T14:08:13;30.60;66.20
13817;DHT22;6979;52.116;5.286;2023-05-28T14:10:40;30.60;65.90
13817;DHT22;6979;52.116;5.286;2023-05-28T14:13:07;30.60;65.90
13817;DHT22;6979;52.116;5.286;2023-05-28T14:15:34;30.50;65.60
13817;DHT22;6979;52.116;5.286;2023-05-28T14:18:02;30.50;65.60
13817;DHT22;6979;52.116;5.286;2023-05-28T14:20:32;30.50;65.40
13817;DHT22;6979;52.116;5.286;2023-05-28T14:23:00;30.50;65.60
13817;DHT22;6979;52.116;5.286;2023-05-28T14:25:27;30.60;65.80
13817;DHT22;6979;52.116;5.286;2023-05-28T14:27:55;30.50;65.70
13817;DHT22;6979;52.116;5.286;2023-05-28T14:30:22;30.60;65.60
13817;DHT22;6979;52.116;5.286;2023-05-28T14:32:49;30.60;65.60
13817;DHT22;6979;52.116;5.286;2023-05-28T14:35:18;30.60;65.60
13817;DHT22;6979;52.116;5.286;2023-05-28T14:37:48;30.70;65.70
13817;DHT22;6979;52.116;5.286;2023-05-28T14:40:16;30.70;65.50
13817;DHT22;6979;52.116;5.286;2023-05-28T14:42:43;30.80;65.70
13817;DHT22;6979;52.116;5.286;2023-05-28T14:45:10;30.80;65.80
13817;DHT22;6979;52.116;5.286;2023-05-28T14:47:41;30.90;66.20
13817;DHT22;6979;52.116;5.286;2023-05-28T14:50:09;31.00;66.60
13817;DHT22;6979;52.116;5.286;2023-05-28T14:52:37;31.10;66.80
13817;DHT22;6979;52.116;5.286;2023-05-28T14:55:04;31.20;67.10
13817;DHT22;6979;52.116;5.286;2023-05-28T14:57:31;31.40;67.40
13817;DHT22;6979;52.116;5.286;2023-05-28T15:00:02;31.50;67.30
13817;DHT22;6979;52.116;5.286;2023-05-28T15:02:35;31.60;66.90
13817;DHT22;6979;52.116;5.286;2023-05-28T15:05:02;31.70;66.80
13817;DHT22;6979;52.116;5.286;2023-05-28T15:07:30;31.80;67.10
13817;DHT22;6979;52.116;5.286;2023-05-28T15:10:00;31.90;67.30
13817;DHT22;6979;52.116;5.286;2023-05-28T15:12:26;31.90;67.20
13817;DHT22;6979;52.116;5.286;2023-05-28T15:14:53;32.00;67.70
13817;DHT22;6979;52.116;5.286;2023-05-28T15:17:20;32.10;68.10
13817;DHT22;6979;52.116;5.286;2023-05-28T15:19:47;32.10;68.50
13817;DHT22;6979;52.116;5.286;2023-05-28T15:22:14;32.10;68.60
13817;DHT22;6979;52.116;5.286;2023-05-28T15:24:41;32.20;68.70
13817;DHT22;6979;52.116;5.286;2023-05-28T15:27:10;32.20;68.50
13817;DHT22;6979;52.116;5.286;2023-05-28T15:29:38;32.20;68.50
13817;DHT22;6979;52.116;5.286;2023-05-28T15:32:09;32.20;68.70
13817;DHT22;6979;52.116;5.286;2023-05-28T15:34:37;32.20;68.80
13817;DHT22;6979;52.116;5.286;2023-05-28T15:37:05;32.20;69.00
13817;DHT22;6979;52.116;5.286;2023-05-28T15:39:32;32.20;68.80
13817;DHT22;6979;52.116;5.286;2023-05-28T15:42:00;32.10;68.90
13817;DHT22;6979;52.116;5.286;2023-05-28T15:44:30;32.10;69.30
13817;DHT22;6979;52.116;5.286;2023-05-28T15:46:57;32.10;68.80
13817;DHT22;6979;52.116;5.286;2023-05-28T15:49:25;32.10;68.80
13817;DHT22;6979;52.116;5.286;2023-05-28T15:51:52;32.10;68.30
13817;DHT22;6979;52.116;5.286;2023-05-28T15:54:19;32.00;68.30
13817;DHT22;6979;52.116;5.286;2023-05-28T15:56:46;32.00;68.50
13817;DHT22;6979;52.116;5.286;2023-05-28T15:59:14;32.00;68.60